sensor_id;sensor_type;location;lat;lon;timestamp;P1;durP1;ratioP1;P2;durP2;ratioP2
830;SDS011;397;50.564;7.272;2023-07-02T00:00:16;4.80;;;2.63;;
830;SDS011;397;50.564;7.272;2023-07-02T00:02:44;4.60;;;3.90;;
830;SDS011;397;50.564;7.272;2023-07-02T00:05:11;3.23;;;2.77;;
830;SDS011;397;50.564;7.272;2023-07-02T00:07:40;4.77;;;3.67;;
830;SDS011;397;50.564;7.272;2023-07-02T00:10:07;4.03;;;3.30;;
830;SDS011;397;50.564;7.272;2023-07-02T00:12:36;4.53;;;3.00;;
830;SDS011;397;50.564;7.272;2023-07-02T00:15:04;3.77;;;3.03;;
830;SDS011;397;50.564;7.272;2023-07-02T00:17:32;6.00;;;2.93;;
830;SDS011;397;50.564;7.272;2023-07-02T00:19:59;4.97;;;3.50;;
830;SDS011;397;50.564;7.272;2023-07-02T00:22:28;3.63;;;3.10;;
830;SDS011;397;50.564;7.272;2023-07-02T00:24:57;5.00;;;3.77;;
830;SDS011;397;50.564;7.272;2023-07-02T00:27:24;4.00;;;3.00;;
830;SDS011;397;50.564;7.272;2023-07-02T00:29:52;3.80;;;3.30;;
830;SDS011;397;50.564;7.272;2023-07-02T00:32:19;3.60;;;2.40;;
830;SDS011;397;50.564;7.272;2023-07-02T00:34:47;3.70;;;3.00;;
830;SDS011;397;50.564;7.272;2023-07-02T00:37:14;4.10;;;2.57;;
830;SDS011;397;50.564;7.272;2023-07-02T00:39:42;4.00;;;3.30;;
830;SDS011;397;50.564;7.272;2023-07-02T00:42:09;4.00;;;2.90;;
830;SDS011;397;50.564;7.272;2023-07-02T00:44:37;8.23;;;3.70;;
830;SDS011;397;50.564;7.272;2023-07-02T00:47:07;3.80;;;2.63;;
830;SDS011;397;50.564;7.272;2023-07-02T00:49:35;3.87;;;3.20;;
830;SDS011;397;50.564;7.272;2023-07-02T00:52:02;3.67;;;3.00;;
830;SDS011;397;50.564;7.272;2023-07-02T00:54:31;3.93;;;3.00;;
830;SDS011;397;50.564;7.272;2023-07-02T00:56:58;5.50;;;3.27;;
830;SDS011;397;50.564;7.272;2023-07-02T00:59:29;5.13;;;3.30;;
830;SDS011;397;50.564;7.272;2023-07-02T01:02:00;4.30;;;3.43;;
830;SDS011;397;50.564;7.272;2023-07-02T01:04:27;4.60;;;4.00;;
830;SDS011;397;50.564;7.272;2023-07-02T01:06:55;3.97;;;3.20;;
830;SDS011;397;50.564;7.272;2023-07-02T01:09:24;3.40;;;3.10;;
830;SDS011;397;50.564;7.272;2023-07-02T01:11:53;6.00;;;3.63;;
830;SDS011;397;50.564;7.272;2023-07-02T01:14:26;4.37;;;3.30;;
830;SDS011;397;50.564;7.272;2023-07-02T01:16:56;3.70;;;3.33;;
830;SDS011;397;50.564;7.272;2023-07-02T01:22:19;3.77;;;3.20;;
830;SDS011;397;50.564;7.272;2023-07-02T01:24:48;4.50;;;3.90;;
830;SDS011;397;50.564;7.272;2023-07-02T01:27:16;5.07;;;3.60;;
830;SDS011;397;50.564;7.272;2023-07-02T01:29:44;8.00;;;3.33;;
830;SDS011;397;50.564;7.272;2023-07-02T01:32:13;5.00;;;3.67;;
830;SDS011;397;50.564;7.272;2023-07-02T01:34:40;4.13;;;3.70;;
830;SDS011;397;50.564;7.272;2023-07-02T01:37:09;4.33;;;3.80;;
830;SDS011;397;50.564;7.272;2023-07-02T01:39:37;4.60;;;4.00;;
830;SDS011;397;50.564;7.272;2023-07-02T01:44:43;4.17;;;3.33;;
830;SDS011;397;50.564;7.272;2023-07-02T01:47:13;6.80;;;4.20;;
830;SDS011;397;50.564;7.272;2023-07-02T01:49:41;8.23;;;4.23;;
830;SDS011;397;50.564;7.272;2023-07-02T01:52:09;4.27;;;3.87;;
830;SDS011;397;50.564;7.272;2023-07-02T01:54:36;5.37;;;4.23;;
830;SDS011;397;50.564;7.272;2023-07-02T01:57:04;4.00;;;3.50;;
830;SDS011;397;50.564;7.272;2023-07-02T01:59:31;7.60;;;4.60;;
830;SDS011;397;50.564;7.272;2023-07-02T02:01:59;6.80;;;4.77;;
830;SDS011;397;50.564;7.272;2023-07-02T02:04:27;5.90;;;3.70;;
830;SDS011;397;50.564;7.272;2023-07-02T02:06:54;4.70;;;4.20;;
830;SDS011;397;50.564;7.272;2023-07-02T02:09:22;9.53;;;3.83;;
830;SDS011;397;50.564;7.272;2023-07-02T02:11:50;4.90;;;4.10;;
830;SDS011;397;50.564;7.272;2023-07-02T02:14:18;6.80;;;4.87;;
830;SDS011;397;50.564;7.272;2023-07-02T02:16:47;6.07;;;3.60;;
830;SDS011;397;50.564;7.272;2023-07-02T02:19:14;5.83;;;4.80;;
830;SDS011;397;50.564;7.272;2023-07-02T02:21:42;4.00;;;3.60;;
830;SDS011;397;50.564;7.272;2023-07-02T02:24:10;5.07;;;3.87;;
830;SDS011;397;50.564;7.272;2023-07-02T02:26:37;5.30;;;3.90;;
830;SDS011;397;50.564;7.272;2023-07-02T02:29:05;6.27;;;4.87;;
830;SDS011;397;50.564;7.272;2023-07-02T02:31:34;7.37;;;3.53;;
830;SDS011;397;50.564;7.272;2023-07-02T02:34:03;5.30;;;3.80;;
830;SDS011;397;50.564;7.272;2023-07-02T02:36:30;6.23;;;5.13;;
830;SDS011;397;50.564;7.272;2023-07-02T02:38:58;5.63;;;4.93;;
830;SDS011;397;50.564;7.272;2023-07-02T02:41:25;5.33;;;4.00;;
830;SDS011;397;50.564;7.272;2023-07-02T02:43:53;7.27;;;4.63;;
830;SDS011;397;50.564;7.272;2023-07-02T02:46:20;6.13;;;4.47;;
830;SDS011;397;50.564;7.272;2023-07-02T02:48:49;5.70;;;4.30;;
830;SDS011;397;50.564;7.272;2023-07-02T02:51:20;6.30;;;3.73;;
830;SDS011;397;50.564;7.272;2023-07-02T02:53:48;8.00;;;4.00;;
830;SDS011;397;50.564;7.272;2023-07-02T02:56:15;6.87;;;5.00;;
830;SDS011;397;50.564;7.272;2023-07-02T02:58:43;8.53;;;5.40;;
830;SDS011;397;50.564;7.272;2023-07-02T03:01:10;7.87;;;5.53;;
830;SDS011;397;50.564;7.272;2023-07-02T03:03:38;9.43;;;6.20;;
830;SDS011;397;50.564;7.272;2023-07-02T03:06:08;10.40;;;5.70;;
830;SDS011;397;50.564;7.272;2023-07-02T03:08:36;9.27;;;6.10;;
830;SDS011;397;50.564;7.272;2023-07-02T03:11:03;8.03;;;6.87;;
830;SDS011;397;50.564;7.272;2023-07-02T03:13:30;8.20;;;5.77;;
830;SDS011;397;50.564;7.272;2023-07-02T03:15:58;7.93;;;5.43;;
830;SDS011;397;50.564;7.272;2023-07-02T03:18:26;10.37;;;6.20;;
830;SDS011;397;50.564;7.272;2023-07-02T03:20:53;10.00;;;5.67;;
830;SDS011;397;50.564;7.272;2023-07-02T03:23:21;8.00;;;6.20;;
830;SDS011;397;50.564;7.272;2023-07-02T03:25:49;8.50;;;6.00;;
830;SDS011;397;50.564;7.272;2023-07-02T03:28:16;10.37;;;6.37;;
830;SDS011;397;50.564;7.272;2023-07-02T03:30:44;7.53;;;6.73;;
830;SDS011;397;50.564;7.272;2023-07-02T03:33:11;8.83;;;5.30;;
830;SDS011;397;50.564;7.272;2023-07-02T03:35:39;11.07;;;7.10;;
830;SDS011;397;50.564;7.272;2023-07-02T03:38:06;9.77;;;7.20;;
830;SDS011;397;50.564;7.272;2023-07-02T03:40:34;9.57;;;5.47;;
830;SDS011;397;50.564;7.272;2023-07-02T03:43:01;8.23;;;5.63;;
830;SDS011;397;50.564;7.272;2023-07-02T03:45:29;7.93;;;5.97;;
830;SDS011;397;50.564;7.272;2023-07-02T03:47:56;8.63;;;6.13;;
830;SDS011;397;50.564;7.272;2023-07-02T03:50:24;9.13;;;5.47;;
830;SDS011;397;50.564;7.272;2023-07-02T03:52:51;8.70;;;5.90;;
830;SDS011;397;50.564;7.272;2023-07-02T03:55:19;10.67;;;6.57;;
830;SDS011;397;50.564;7.272;2023-07-02T03:57:46;12.90;;;7.77;;
830;SDS011;397;50.564;7.272;2023-07-02T04:00:14;7.20;;;6.03;;
830;SDS011;397;50.564;7.272;2023-07-02T04:02:41;8.70;;;6.87;;
830;SDS011;397;50.564;7.272;2023-07-02T04:05:09;11.90;;;8.67;;
830;SDS011;397;50.564;7.272;2023-07-02T04:07:37;12.80;;;8.40;;
830;SDS011;397;50.564;7.272;2023-07-02T04:10:06;10.80;;;7.80;;
830;SDS011;397;50.564;7.272;2023-07-02T04:12:34;10.10;;;8.00;;
830;SDS011;397;50.564;7.272;2023-07-02T04:15:01;9.37;;;7.47;;
830;SDS011;397;50.564;7.272;2023-07-02T04:17:29;9.53;;;7.50;;
830;SDS011;397;50.564;7.272;2023-07-02T04:19:57;10.27;;;7.93;;
830;SDS011;397;50.564;7.272;2023-07-02T04:22:26;11.47;;;8.20;;
830;SDS011;397;50.564;7.272;2023-07-02T04:24:53;11.57;;;9.10;;
830;SDS011;397;50.564;7.272;2023-07-02T04:27:21;11.67;;;8.17;;
830;SDS011;397;50.564;7.272;2023-07-02T04:29:49;11.00;;;7.40;;
830;SDS011;397;50.564;7.272;2023-07-02T04:32:16;11.23;;;7.93;;
830;SDS011;397;50.564;7.272;2023-07-02T04:34:44;10.53;;;7.30;;
830;SDS011;397;50.564;7.272;2023-07-02T04:37:11;9.40;;;8.43;;
830;SDS011;397;50.564;7.272;2023-07-02T04:39:40;8.57;;;7.30;;
830;SDS011;397;50.564;7.272;2023-07-02T04:42:08;10.97;;;9.87;;
830;SDS011;397;50.564;7.272;2023-07-02T04:44:35;10.87;;;8.57;;
830;SDS011;397;50.564;7.272;2023-07-02T04:47:03;14.23;;;8.57;;
830;SDS011;397;50.564;7.272;2023-07-02T04:49:30;13.80;;;9.17;;
830;SDS011;397;50.564;7.272;2023-07-02T04:51:58;11.33;;;8.57;;
830;SDS011;397;50.564;7.272;2023-07-02T04:54:25;14.33;;;9.50;;
830;SDS011;397;50.564;7.272;2023-07-02T04:56:53;13.93;;;10.50;;
830;SDS011;397;50.564;7.272;2023-07-02T04:59:21;11.90;;;10.30;;
830;SDS011;397;50.564;7.272;2023-07-02T05:01:48;15.23;;;11.90;;
830;SDS011;397;50.564;7.272;2023-07-02T05:04:16;12.67;;;11.20;;
830;SDS011;397;50.564;7.272;2023-07-02T05:06:44;13.63;;;11.37;;
830;SDS011;397;50.564;7.272;2023-07-02T05:09:11;12.90;;;10.60;;
830;SDS011;397;50.564;7.272;2023-07-02T05:11:39;18.40;;;12.07;;
830;SDS011;397;50.564;7.272;2023-07-02T05:14:06;17.13;;;13.30;;
830;SDS011;397;50.564;7.272;2023-07-02T05:16:34;16.10;;;12.10;;
830;SDS011;397;50.564;7.272;2023-07-02T05:19:01;16.30;;;13.40;;
830;SDS011;397;50.564;7.272;2023-07-02T05:21:29;15.40;;;12.13;;
830;SDS011;397;50.564;7.272;2023-07-02T05:23:56;17.50;;;12.60;;
830;SDS011;397;50.564;7.272;2023-07-02T05:26:24;25.03;;;12.20;;
830;SDS011;397;50.564;7.272;2023-07-02T05:28:52;18.90;;;13.10;;
830;SDS011;397;50.564;7.272;2023-07-02T05:31:20;15.83;;;13.50;;
830;SDS011;397;50.564;7.272;2023-07-02T05:33:48;15.97;;;12.30;;
830;SDS011;397;50.564;7.272;2023-07-02T05:36:15;16.97;;;13.70;;
830;SDS011;397;50.564;7.272;2023-07-02T05:38:43;16.33;;;13.80;;
830;SDS011;397;50.564;7.272;2023-07-02T05:41:10;19.93;;;13.23;;
830;SDS011;397;50.564;7.272;2023-07-02T05:43:38;21.80;;;14.47;;
830;SDS011;397;50.564;7.272;2023-07-02T05:46:05;17.97;;;13.10;;
830;SDS011;397;50.564;7.272;2023-07-02T05:48:33;18.10;;;13.97;;
830;SDS011;397;50.564;7.272;2023-07-02T05:51:00;19.20;;;14.97;;
830;SDS011;397;50.564;7.272;2023-07-02T05:53:28;17.00;;;14.03;;
830;SDS011;397;50.564;7.272;2023-07-02T05:55:56;20.33;;;15.83;;
830;SDS011;397;50.564;7.272;2023-07-02T05:58:23;20.50;;;16.03;;
830;SDS011;397;50.564;7.272;2023-07-02T06:00:51;20.93;;;16.80;;
830;SDS011;397;50.564;7.272;2023-07-02T06:03:18;19.43;;;17.33;;
830;SDS011;397;50.564;7.272;2023-07-02T06:05:49;25.40;;;17.50;;
830;SDS011;397;50.564;7.272;2023-07-02T06:08:17;20.57;;;18.13;;
830;SDS011;397;50.564;7.272;2023-07-02T06:10:45;24.83;;;17.60;;
830;SDS011;397;50.564;7.272;2023-07-02T06:13:14;25.07;;;17.83;;
830;SDS011;397;50.564;7.272;2023-07-02T06:15:41;22.67;;;16.87;;
830;SDS011;397;50.564;7.272;2023-07-02T06:20:56;23.23;;;18.47;;
830;SDS011;397;50.564;7.272;2023-07-02T06:23:23;21.57;;;17.30;;
830;SDS011;397;50.564;7.272;2023-07-02T06:25:51;24.10;;;17.90;;
830;SDS011;397;50.564;7.272;2023-07-02T06:28:20;22.90;;;18.80;;
830;SDS011;397;50.564;7.272;2023-07-02T06:30:47;25.57;;;17.73;;
830;SDS011;397;50.564;7.272;2023-07-02T06:33:15;26.43;;;18.27;;
830;SDS011;397;50.564;7.272;2023-07-02T06:35:42;23.87;;;19.73;;
830;SDS011;397;50.564;7.272;2023-07-02T06:38:10;24.93;;;18.97;;
830;SDS011;397;50.564;7.272;2023-07-02T06:40:37;23.23;;;18.87;;
830;SDS011;397;50.564;7.272;2023-07-02T06:43:05;22.70;;;17.53;;
830;SDS011;397;50.564;7.272;2023-07-02T06:45:32;20.17;;;17.20;;
830;SDS011;397;50.564;7.272;2023-07-02T06:48:00;21.90;;;17.90;;
830;SDS011;397;50.564;7.272;2023-07-02T06:50:27;20.90;;;18.00;;
830;SDS011;397;50.564;7.272;2023-07-02T06:52:55;20.07;;;17.97;;
830;SDS011;397;50.564;7.272;2023-07-02T06:55:22;20.60;;;18.30;;
830;SDS011;397;50.564;7.272;2023-07-02T06:57:50;20.60;;;17.90;;
830;SDS011;397;50.564;7.272;2023-07-02T07:00:17;20.17;;;18.03;;
830;SDS011;397;50.564;7.272;2023-07-02T07:02:45;20.83;;;18.73;;
830;SDS011;397;50.564;7.272;2023-07-02T07:05:12;21.30;;;19.07;;
830;SDS011;397;50.564;7.272;2023-07-02T07:07:40;21.67;;;19.30;;
830;SDS011;397;50.564;7.272;2023-07-02T07:10:08;21.90;;;18.20;;
830;SDS011;397;50.564;7.272;2023-07-02T07:12:35;24.40;;;19.43;;
830;SDS011;397;50.564;7.272;2023-07-02T07:15:03;20.07;;;17.97;;
830;SDS011;397;50.564;7.272;2023-07-02T07:17:31;19.93;;;16.73;;
830;SDS011;397;50.564;7.272;2023-07-02T07:19:59;21.30;;;18.40;;
830;SDS011;397;50.564;7.272;2023-07-02T07:22:28;20.10;;;17.93;;
830;SDS011;397;50.564;7.272;2023-07-02T07:24:55;21.47;;;19.17;;
830;SDS011;397;50.564;7.272;2023-07-02T07:27:23;22.17;;;17.17;;
830;SDS011;397;50.564;7.272;2023-07-02T07:29:50;19.53;;;16.20;;
830;SDS011;397;50.564;7.272;2023-07-02T07:32:19;21.17;;;17.93;;
830;SDS011;397;50.564;7.272;2023-07-02T07:34:47;21.57;;;17.70;;
830;SDS011;397;50.564;7.272;2023-07-02T07:37:15;28.20;;;17.73;;
830;SDS011;397;50.564;7.272;2023-07-02T07:39:42;23.07;;;17.93;;
830;SDS011;397;50.564;7.272;2023-07-02T07:42:10;23.97;;;17.87;;
830;SDS011;397;50.564;7.272;2023-07-02T07:44:37;22.60;;;17.10;;
830;SDS011;397;50.564;7.272;2023-07-02T07:47:05;21.10;;;18.07;;
830;SDS011;397;50.564;7.272;2023-07-02T07:49:32;27.70;;;18.60;;
830;SDS011;397;50.564;7.272;2023-07-02T07:52:00;23.10;;;18.30;;
830;SDS011;397;50.564;7.272;2023-07-02T07:54:29;18.10;;;15.20;;
830;SDS011;397;50.564;7.272;2023-07-02T07:56:56;21.40;;;16.87;;
830;SDS011;397;50.564;7.272;2023-07-02T07:59:24;22.63;;;16.90;;
830;SDS011;397;50.564;7.272;2023-07-02T08:01:51;18.90;;;15.10;;
830;SDS011;397;50.564;7.272;2023-07-02T08:04:19;18.20;;;13.57;;
830;SDS011;397;50.564;7.272;2023-07-02T08:06:46;19.47;;;11.83;;
830;SDS011;397;50.564;7.272;2023-07-02T08:09:14;20.00;;;13.23;;
830;SDS011;397;50.564;7.272;2023-07-02T08:11:41;18.37;;;11.93;;
830;SDS011;397;50.564;7.272;2023-07-02T08:14:09;23.03;;;13.40;;
830;SDS011;397;50.564;7.272;2023-07-02T08:16:36;22.17;;;14.40;;
830;SDS011;397;50.564;7.272;2023-07-02T08:19:04;18.20;;;14.53;;
830;SDS011;397;50.564;7.272;2023-07-02T08:21:31;17.50;;;15.10;;
830;SDS011;397;50.564;7.272;2023-07-02T08:23:59;18.03;;;15.40;;
830;SDS011;397;50.564;7.272;2023-07-02T08:26:26;21.63;;;14.27;;
830;SDS011;397;50.564;7.272;2023-07-02T08:28:54;19.27;;;16.00;;
830;SDS011;397;50.564;7.272;2023-07-02T08:31:22;18.77;;;15.70;;
830;SDS011;397;50.564;7.272;2023-07-02T08:33:49;16.97;;;15.17;;
830;SDS011;397;50.564;7.272;2023-07-02T08:36:17;19.57;;;15.73;;
830;SDS011;397;50.564;7.272;2023-07-02T08:38:44;18.50;;;15.17;;
830;SDS011;397;50.564;7.272;2023-07-02T08:41:12;18.30;;;15.47;;
830;SDS011;397;50.564;7.272;2023-07-02T08:43:39;18.97;;;16.07;;
830;SDS011;397;50.564;7.272;2023-07-02T08:46:07;20.50;;;15.37;;
830;SDS011;397;50.564;7.272;2023-07-02T08:48:35;29.40;;;16.63;;
830;SDS011;397;50.564;7.272;2023-07-02T08:51:03;16.70;;;14.90;;
830;SDS011;397;50.564;7.272;2023-07-02T08:53:30;21.37;;;15.60;;
830;SDS011;397;50.564;7.272;2023-07-02T08:56:00;18.97;;;14.87;;
830;SDS011;397;50.564;7.272;2023-07-02T08:58:28;18.87;;;14.30;;
830;SDS011;397;50.564;7.272;2023-07-02T09:01:04;17.50;;;15.10;;
830;SDS011;397;50.564;7.272;2023-07-02T09:03:36;23.00;;;15.23;;
830;SDS011;397;50.564;7.272;2023-07-02T09:06:05;19.03;;;15.40;;
830;SDS011;397;50.564;7.272;2023-07-02T09:08:34;22.17;;;16.03;;
830;SDS011;397;50.564;7.272;2023-07-02T09:11:05;16.97;;;14.53;;
830;SDS011;397;50.564;7.272;2023-07-02T09:16:22;20.37;;;15.47;;
830;SDS011;397;50.564;7.272;2023-07-02T09:18:58;18.70;;;14.57;;
830;SDS011;397;50.564;7.272;2023-07-02T09:21:38;18.10;;;14.70;;
830;SDS011;397;50.564;7.272;2023-07-02T09:24:20;18.73;;;14.70;;
830;SDS011;397;50.564;7.272;2023-07-02T09:26:49;21.03;;;16.13;;
830;SDS011;397;50.564;7.272;2023-07-02T09:29:22;20.40;;;14.43;;
830;SDS011;397;50.564;7.272;2023-07-02T09:31:55;21.00;;;14.40;;
830;SDS011;397;50.564;7.272;2023-07-02T09:34:28;21.43;;;15.63;;
830;SDS011;397;50.564;7.272;2023-07-02T09:37:01;23.37;;;14.90;;
830;SDS011;397;50.564;7.272;2023-07-02T09:39:31;20.47;;;14.93;;
830;SDS011;397;50.564;7.272;2023-07-02T09:42:01;20.63;;;16.07;;
830;SDS011;397;50.564;7.272;2023-07-02T09:44:31;23.90;;;16.20;;
830;SDS011;397;50.564;7.272;2023-07-02T09:49:37;17.73;;;15.53;;
830;SDS011;397;50.564;7.272;2023-07-02T09:52:06;17.97;;;16.13;;
830;SDS011;397;50.564;7.272;2023-07-02T09:54:35;20.20;;;14.27;;
830;SDS011;397;50.564;7.272;2023-07-02T09:57:08;22.50;;;15.70;;
830;SDS011;397;50.564;7.272;2023-07-02T09:59:35;16.30;;;14.60;;
830;SDS011;397;50.564;7.272;2023-07-02T10:02:04;19.93;;;14.70;;
830;SDS011;397;50.564;7.272;2023-07-02T10:04:42;19.00;;;16.77;;
830;SDS011;397;50.564;7.272;2023-07-02T10:07:10;18.93;;;15.53;;
830;SDS011;397;50.564;7.272;2023-07-02T10:09:39;24.80;;;16.60;;
830;SDS011;397;50.564;7.272;2023-07-02T10:12:21;17.17;;;14.40;;
830;SDS011;397;50.564;7.272;2023-07-02T10:14:51;18.80;;;13.77;;
830;SDS011;397;50.564;7.272;2023-07-02T10:17:27;14.70;;;13.13;;
830;SDS011;397;50.564;7.272;2023-07-02T10:19:57;18.13;;;13.10;;
830;SDS011;397;50.564;7.272;2023-07-02T10:22:26;15.43;;;12.90;;
830;SDS011;397;50.564;7.272;2023-07-02T10:24:54;16.00;;;12.10;;
830;SDS011;397;50.564;7.272;2023-07-02T10:27:32;14.40;;;12.17;;
830;SDS011;397;50.564;7.272;2023-07-02T10:30:02;14.30;;;12.33;;
830;SDS011;397;50.564;7.272;2023-07-02T10:32:32;20.10;;;13.57;;
830;SDS011;397;50.564;7.272;2023-07-02T10:35:01;19.73;;;12.93;;
830;SDS011;397;50.564;7.272;2023-07-02T10:37:36;15.87;;;13.00;;
830;SDS011;397;50.564;7.272;2023-07-02T10:40:05;15.50;;;13.13;;
830;SDS011;397;50.564;7.272;2023-07-02T10:42:45;18.10;;;12.90;;
830;SDS011;397;50.564;7.272;2023-07-02T10:45:13;17.07;;;13.00;;
830;SDS011;397;50.564;7.272;2023-07-02T10:47:41;15.83;;;13.17;;
830;SDS011;397;50.564;7.272;2023-07-02T10:50:19;18.67;;;14.07;;
830;SDS011;397;50.564;7.272;2023-07-02T10:52:49;20.33;;;16.53;;
830;SDS011;397;50.564;7.272;2023-07-02T10:55:17;21.63;;;16.13;;
830;SDS011;397;50.564;7.272;2023-07-02T10:57:46;22.30;;;19.90;;
830;SDS011;397;50.564;7.272;2023-07-02T11:00:16;21.40;;;16.80;;
830;SDS011;397;50.564;7.272;2023-07-02T11:02:45;21.70;;;17.27;;
830;SDS011;397;50.564;7.272;2023-07-02T11:05:12;17.90;;;13.63;;
830;SDS011;397;50.564;7.272;2023-07-02T11:07:40;23.70;;;18.03;;
830;SDS011;397;50.564;7.272;2023-07-02T11:10:09;19.20;;;17.00;;
830;SDS011;397;50.564;7.272;2023-07-02T11:12:37;17.70;;;13.87;;
830;SDS011;397;50.564;7.272;2023-07-02T11:15:11;19.50;;;13.23;;
830;SDS011;397;50.564;7.272;2023-07-02T11:17:40;15.57;;;13.80;;
830;SDS011;397;50.564;7.272;2023-07-02T11:20:08;18.00;;;13.70;;
830;SDS011;397;50.564;7.272;2023-07-02T11:22:37;18.87;;;15.27;;
830;SDS011;397;50.564;7.272;2023-07-02T11:25:10;19.20;;;14.37;;
830;SDS011;397;50.564;7.272;2023-07-02T11:27:44;17.70;;;13.23;;
830;SDS011;397;50.564;7.272;2023-07-02T11:30:12;17.30;;;13.60;;
830;SDS011;397;50.564;7.272;2023-07-02T11:32:49;23.20;;;14.40;;
830;SDS011;397;50.564;7.272;2023-07-02T11:35:34;14.67;;;13.17;;
830;SDS011;397;50.564;7.272;2023-07-02T11:38:02;14.63;;;11.27;;
830;SDS011;397;50.564;7.272;2023-07-02T11:40:29;15.57;;;13.97;;
830;SDS011;397;50.564;7.272;2023-07-02T11:42:57;17.60;;;13.10;;
830;SDS011;397;50.564;7.272;2023-07-02T11:45:24;20.20;;;13.83;;
830;SDS011;397;50.564;7.272;2023-07-02T11:47:52;14.17;;;12.10;;
830;SDS011;397;50.564;7.272;2023-07-02T11:50:19;16.93;;;12.67;;
830;SDS011;397;50.564;7.272;2023-07-02T11:52:47;16.70;;;14.10;;
830;SDS011;397;50.564;7.272;2023-07-02T11:55:14;18.33;;;12.50;;
830;SDS011;397;50.564;7.272;2023-07-02T11:57:42;16.63;;;13.20;;
830;SDS011;397;50.564;7.272;2023-07-02T12:00:09;21.67;;;13.53;;
830;SDS011;397;50.564;7.272;2023-07-02T12:02:37;19.40;;;14.20;;
830;SDS011;397;50.564;7.272;2023-07-02T12:05:05;19.13;;;14.23;;
830;SDS011;397;50.564;7.272;2023-07-02T12:07:33;16.23;;;13.43;;
830;SDS011;397;50.564;7.272;2023-07-02T12:10:01;19.43;;;15.10;;
830;SDS011;397;50.564;7.272;2023-07-02T12:12:28;19.30;;;15.10;;
830;SDS011;397;50.564;7.272;2023-07-02T12:14:56;17.00;;;13.73;;
830;SDS011;397;50.564;7.272;2023-07-02T12:17:23;17.47;;;13.80;;
830;SDS011;397;50.564;7.272;2023-07-02T12:19:51;16.77;;;12.70;;
830;SDS011;397;50.564;7.272;2023-07-02T12:22:18;19.50;;;14.67;;
830;SDS011;397;50.564;7.272;2023-07-02T12:24:48;16.07;;;12.27;;
830;SDS011;397;50.564;7.272;2023-07-02T12:27:19;20.33;;;14.43;;
830;SDS011;397;50.564;7.272;2023-07-02T12:29:47;17.43;;;12.87;;
830;SDS011;397;50.564;7.272;2023-07-02T12:32:15;16.97;;;13.33;;
830;SDS011;397;50.564;7.272;2023-07-02T12:34:42;17.10;;;13.33;;
830;SDS011;397;50.564;7.272;2023-07-02T12:37:10;17.37;;;13.70;;
830;SDS011;397;50.564;7.272;2023-07-02T12:39:39;17.27;;;14.03;;
830;SDS011;397;50.564;7.272;2023-07-02T12:42:06;18.30;;;13.27;;
830;SDS011;397;50.564;7.272;2023-07-02T12:44:34;15.63;;;12.87;;
830;SDS011;397;50.564;7.272;2023-07-02T12:49:48;19.47;;;13.20;;
830;SDS011;397;50.564;7.272;2023-07-02T12:52:15;18.30;;;14.37;;
830;SDS011;397;50.564;7.272;2023-07-02T12:54:43;20.30;;;13.53;;
830;SDS011;397;50.564;7.272;2023-07-02T12:57:10;17.93;;;14.23;;
830;SDS011;397;50.564;7.272;2023-07-02T12:59:38;17.53;;;14.33;;
830;SDS011;397;50.564;7.272;2023-07-02T13:02:06;20.30;;;15.10;;
830;SDS011;397;50.564;7.272;2023-07-02T13:04:33;17.80;;;13.17;;
830;SDS011;397;50.564;7.272;2023-07-02T13:07:01;17.10;;;14.57;;
830;SDS011;397;50.564;7.272;2023-07-02T13:09:28;16.50;;;14.00;;
830;SDS011;397;50.564;7.272;2023-07-02T13:11:56;19.50;;;13.33;;
830;SDS011;397;50.564;7.272;2023-07-02T13:14:23;19.47;;;15.27;;
830;SDS011;397;50.564;7.272;2023-07-02T13:16:51;20.20;;;15.80;;
830;SDS011;397;50.564;7.272;2023-07-02T13:19:18;19.77;;;14.50;;
830;SDS011;397;50.564;7.272;2023-07-02T13:21:46;21.10;;;14.30;;
830;SDS011;397;50.564;7.272;2023-07-02T13:24:13;19.07;;;15.03;;
830;SDS011;397;50.564;7.272;2023-07-02T13:26:41;18.57;;;13.60;;
830;SDS011;397;50.564;7.272;2023-07-02T13:29:08;19.33;;;14.00;;
830;SDS011;397;50.564;7.272;2023-07-02T13:31:36;15.30;;;13.70;;
830;SDS011;397;50.564;7.272;2023-07-02T13:34:03;19.80;;;13.57;;
830;SDS011;397;50.564;7.272;2023-07-02T13:36:31;15.77;;;13.60;;
830;SDS011;397;50.564;7.272;2023-07-02T13:38:58;19.50;;;14.17;;
830;SDS011;397;50.564;7.272;2023-07-02T13:41:26;19.80;;;14.47;;
830;SDS011;397;50.564;7.272;2023-07-02T13:43:55;18.33;;;13.50;;
830;SDS011;397;50.564;7.272;2023-07-02T13:46:23;20.10;;;14.37;;
830;SDS011;397;50.564;7.272;2023-07-02T13:48:50;20.43;;;13.30;;
830;SDS011;397;50.564;7.272;2023-07-02T13:51:18;20.43;;;13.57;;
830;SDS011;397;50.564;7.272;2023-07-02T13:53:45;18.30;;;14.67;;
830;SDS011;397;50.564;7.272;2023-07-02T13:56:13;17.93;;;14.43;;
830;SDS011;397;50.564;7.272;2023-07-02T13:58:47;20.60;;;13.30;;
830;SDS011;397;50.564;7.272;2023-07-02T14:01:23;20.57;;;15.37;;
830;SDS011;397;50.564;7.272;2023-07-02T14:03:51;18.00;;;14.87;;
830;SDS011;397;50.564;7.272;2023-07-02T14:06:20;18.03;;;14.67;;
830;SDS011;397;50.564;7.272;2023-07-02T14:08:48;19.67;;;15.70;;
830;SDS011;397;50.564;7.272;2023-07-02T14:11:15;19.57;;;14.93;;
830;SDS011;397;50.564;7.272;2023-07-02T14:13:43;18.70;;;14.97;;
830;SDS011;397;50.564;7.272;2023-07-02T14:16:10;23.00;;;16.63;;
830;SDS011;397;50.564;7.272;2023-07-02T14:18:38;20.83;;;16.93;;
830;SDS011;397;50.564;7.272;2023-07-02T14:21:05;22.00;;;15.43;;
830;SDS011;397;50.564;7.272;2023-07-02T14:23:33;23.30;;;14.30;;
830;SDS011;397;50.564;7.272;2023-07-02T14:26:00;19.73;;;14.40;;
830;SDS011;397;50.564;7.272;2023-07-02T14:28:28;18.23;;;13.80;;
830;SDS011;397;50.564;7.272;2023-07-02T14:30:59;23.70;;;14.60;;
830;SDS011;397;50.564;7.272;2023-07-02T14:33:28;21.80;;;15.17;;
830;SDS011;397;50.564;7.272;2023-07-02T14:35:57;22.90;;;14.50;;
830;SDS011;397;50.564;7.272;2023-07-02T14:38:24;21.87;;;14.47;;
830;SDS011;397;50.564;7.272;2023-07-02T14:40:53;17.13;;;13.67;;
830;SDS011;397;50.564;7.272;2023-07-02T14:43:22;18.97;;;14.83;;
830;SDS011;397;50.564;7.272;2023-07-02T14:45:52;17.70;;;15.00;;
830;SDS011;397;50.564;7.272;2023-07-02T14:48:21;19.87;;;13.40;;
830;SDS011;397;50.564;7.272;2023-07-02T14:50:50;22.47;;;15.50;;
830;SDS011;397;50.564;7.272;2023-07-02T14:53:19;19.83;;;14.83;;
830;SDS011;397;50.564;7.272;2023-07-02T14:55:47;22.10;;;14.40;;
830;SDS011;397;50.564;7.272;2023-07-02T14:58:16;22.70;;;14.60;;
830;SDS011;397;50.564;7.272;2023-07-02T15:00:45;16.20;;;13.23;;
830;SDS011;397;50.564;7.272;2023-07-02T15:03:14;18.37;;;14.60;;
830;SDS011;397;50.564;7.272;2023-07-02T15:05:44;17.37;;;14.00;;
830;SDS011;397;50.564;7.272;2023-07-02T15:08:13;17.43;;;13.27;;
830;SDS011;397;50.564;7.272;2023-07-02T15:10:45;17.10;;;12.87;;
830;SDS011;397;50.564;7.272;2023-07-02T15:13:12;17.20;;;13.40;;
830;SDS011;397;50.564;7.272;2023-07-02T15:16:01;19.83;;;12.60;;
830;SDS011;397;50.564;7.272;2023-07-02T15:18:28;27.10;;;14.37;;
830;SDS011;397;50.564;7.272;2023-07-02T15:20:56;22.43;;;15.07;;
830;SDS011;397;50.564;7.272;2023-07-02T15:23:24;20.97;;;12.60;;
830;SDS011;397;50.564;7.272;2023-07-02T15:25:54;19.03;;;14.40;;
830;SDS011;397;50.564;7.272;2023-07-02T15:28:23;17.10;;;13.23;;
830;SDS011;397;50.564;7.272;2023-07-02T15:30:53;21.13;;;14.17;;
830;SDS011;397;50.564;7.272;2023-07-02T15:33:21;17.77;;;13.10;;
830;SDS011;397;50.564;7.272;2023-07-02T15:35:49;19.37;;;14.37;;
830;SDS011;397;50.564;7.272;2023-07-02T15:38:18;17.93;;;13.00;;
830;SDS011;397;50.564;7.272;2023-07-02T15:40:47;18.47;;;13.50;;
830;SDS011;397;50.564;7.272;2023-07-02T15:43:15;25.73;;;15.87;;
830;SDS011;397;50.564;7.272;2023-07-02T15:45:42;15.67;;;12.80;;
830;SDS011;397;50.564;7.272;2023-07-02T15:48:10;17.00;;;12.90;;